This is the latest recevied weather packets stored in our database for station/object SQ4IXR-4. If no packets are shown the sender has not sent any weather packets the latest 10 day(s).
| Time | Temp. | Humidity | Pressure | Rain* | Wind** | Luminosity | Snow |
|---|---|---|---|---|---|---|---|
| 1778000097 | 19.44° C | 10% | - | - | - | - | - |
| 1777999273 | 18.89° C | 10% | - | - | - | - | - |
| 1777998450 | 18.89° C | 10% | - | - | - | - | - |
| 1777997627 | 19.44° C | 98% | 1010.2 hPa | - | - | - | - |
| 1777996804 | 19.44° C | 96% | 1010.3 hPa | - | - | - | - |
| 1777995982 | 20.56° C | 88% | 1010.3 hPa | - | - | - | - |
| 1777995159 | 20.56° C | 89% | 1010.5 hPa | - | - | - | - |
| 1777994333 | 19.44° C | 94% | 1010.6 hPa | - | - | - | - |
| 1777993514 | 20.56° C | 10% | - | - | - | - | - |
| 1777992697 | 22.78° C | 54% | 1011.2 hPa | - | - | - | - |
| 1777991877 | 23.89° C | 46% | 1010.6 hPa | - | - | - | - |
| 1777991058 | 25.56° C | 42% | 1010.4 hPa | - | - | - | - |
| 1777989411 | 27.22° C | 35% | 1010.5 hPa | - | - | - | - |
| 1777988588 | 29.44° C | 29% | 1010.4 hPa | - | - | - | - |
| 1777987764 | 30° C | 29% | 1010.4 hPa | - | - | - | - |
| 1777986938 | 28.89° C | 30% | 1010.6 hPa | - | - | - | - |
| 1777986114 | 28.33° C | 31% | 1010.7 hPa | - | - | - | - |
| 1777985295 | 30° C | 27% | 1010.7 hPa | - | - | - | - |
| 1777984474 | 30.56° C | 27% | 1010.8 hPa | - | - | - | - |
| 1777983655 | 37.22° C | 19% | 1010.7 hPa | - | - | - | - |
| 1777981894 | 30.56° C | 25% | 1011.2 hPa | - | - | - | - |
| 1777981061 | 33.33° C | 22% | 1011.2 hPa | - | - | - | - |
| 1777980241 | 29.44° C | 27% | 1011.4 hPa | - | - | - | - |
| 1777979415 | 28.33° C | 29% | 1011.7 hPa | - | - | - | - |
| 1777978589 | 29.44° C | 27% | 1011.6 hPa | - | - | - | - |
* Rain since midnight (hover to see other rain measurements)
** Current wind speed in m/s (hover to see current wind gust speed)